createdAt,value
2023-02-25T00:01:24.006Z,12.38
2023-02-25T00:03:53.265Z,10.50
2023-02-25T00:06:22.205Z,9.02
2023-02-25T00:08:51.788Z,10.27
2023-02-25T00:11:21.369Z,6.75
2023-02-25T00:13:49.547Z,10.83
2023-02-25T00:16:18.952Z,7.22
2023-02-25T00:18:48.819Z,8.37
2023-02-25T00:21:17.873Z,7.25
2023-02-25T00:23:47.691Z,9.23
2023-02-25T00:26:16.808Z,7.63
2023-02-25T00:28:45.160Z,8.43
2023-02-25T00:31:15.532Z,7.95
2023-02-25T00:33:44.316Z,8.07
2023-02-25T00:36:18.884Z,7.72
2023-02-25T00:38:48.451Z,8.55
2023-02-25T00:41:19.096Z,10.40
2023-02-25T00:43:51.041Z,8.57
2023-02-25T00:46:19.515Z,7.47
2023-02-25T00:48:47.816Z,9.07
2023-02-25T00:51:18.938Z,8.88
2023-02-25T00:53:47.274Z,9.60
2023-02-25T00:56:17.212Z,10.02
2023-02-25T00:58:46.623Z,7.53
2023-02-25T01:01:20.327Z,9.68
2023-02-25T01:03:48.900Z,8.47
2023-02-25T01:06:18.537Z,10.48
2023-02-25T01:08:46.764Z,10.93
2023-02-25T01:11:20.734Z,8.07
2023-02-25T01:13:50.193Z,10.00
2023-02-25T01:16:21.343Z,8.88
2023-02-25T01:18:52.537Z,9.70
2023-02-25T01:21:26.836Z,9.95
2023-02-25T01:23:58.687Z,9.43
2023-02-25T01:26:27.724Z,9.43
2023-02-25T01:28:56.108Z,9.82
2023-02-25T01:31:29.341Z,11.23
2023-02-25T01:33:59.031Z,12.02
2023-02-25T01:36:29.390Z,9.25
2023-02-25T01:38:58.907Z,11.20
2023-02-25T01:41:28.504Z,11.50
2023-02-25T01:44:08.370Z,11.27
2023-02-25T01:46:36.918Z,12.35
2023-02-25T01:49:08.302Z,9.52
2023-02-25T01:51:38.263Z,11.35
2023-02-25T01:54:10.571Z,13.57
2023-02-25T01:56:41.382Z,10.57
2023-02-25T01:59:10.379Z,9.25
2023-02-25T02:01:40.642Z,10.05
2023-02-25T02:04:12.004Z,12.57
2023-02-25T02:06:43.256Z,10.45
2023-02-25T02:09:14.634Z,11.15
2023-02-25T02:11:43.506Z,10.65
2023-02-25T02:14:17.400Z,12.80
2023-02-25T02:17:11.234Z,11.32
2023-02-25T02:20:12.973Z,11.15
2023-02-25T02:22:51.582Z,12.87
2023-02-25T02:25:52.678Z,11.37
2023-02-25T02:28:46.028Z,11.93
2023-02-25T02:31:25.512Z,10.33
2023-02-25T02:34:00.467Z,6.93
2023-02-25T02:36:39.764Z,10.00
2023-02-25T02:39:17.171Z,6.80
2023-02-25T02:41:49.631Z,13.63
2023-02-25T02:44:24.064Z,9.73
2023-02-25T02:46:58.571Z,9.30
2023-02-25T02:49:32.100Z,10.97
2023-02-25T02:52:05.427Z,9.40
2023-02-25T02:54:38.552Z,12.33
2023-02-25T02:57:28.193Z,14.77
2023-02-25T02:59:59.885Z,13.97
2023-02-25T03:02:32.664Z,13.60
2023-02-25T03:05:03.922Z,8.60
2023-02-25T03:07:35.129Z,13.43
2023-02-25T03:10:05.972Z,12.43
2023-02-25T03:12:34.349Z,15.60
2023-02-25T03:15:02.437Z,10.43
2023-02-25T03:17:40.401Z,9.03
2023-02-25T03:20:13.329Z,8.03
2023-02-25T03:22:46.676Z,12.13
2023-02-25T03:25:18.803Z,9.90
2023-02-25T03:27:52.293Z,11.03
2023-02-25T03:30:30.253Z,8.77
2023-02-25T03:33:05.092Z,7.03
2023-02-25T03:35:36.115Z,12.60
2023-02-25T03:38:09.198Z,8.77
2023-02-25T03:40:39.420Z,11.67
2023-02-25T03:43:12.689Z,12.87
2023-02-25T03:45:44.320Z,11.20
2023-02-25T03:48:16.448Z,14.53
2023-02-25T03:50:49.359Z,11.67
2023-02-25T03:53:17.501Z,9.30
2023-02-25T03:55:58.600Z,15.87
2023-02-25T03:58:26.585Z,10.83
2023-02-25T04:01:02.460Z,10.27
2023-02-25T04:03:34.238Z,9.17
2023-02-25T04:06:02.299Z,5.60
2023-02-25T04:08:30.451Z,13.37
2023-02-25T04:10:58.364Z,10.77
2023-02-25T04:13:26.328Z,9.03
2023-02-25T04:15:54.384Z,7.50
2023-02-25T04:18:24.789Z,10.90
2023-02-25T04:20:55.059Z,8.80
2023-02-25T04:23:23.137Z,12.93
2023-02-25T04:25:51.089Z,11.90
2023-02-25T04:28:19.319Z,12.87
2023-02-25T04:30:47.352Z,11.93
2023-02-25T04:33:15.580Z,13.33
2023-02-25T04:35:44.148Z,11.43
2023-02-25T04:38:13.465Z,9.73
2023-02-25T04:40:41.719Z,12.27
2023-02-25T04:43:09.937Z,9.53
2023-02-25T04:45:37.870Z,11.97
2023-02-25T04:48:06.692Z,12.07
2023-02-25T04:50:34.716Z,10.80
2023-02-25T04:53:03.164Z,11.73
2023-02-25T04:55:32.472Z,12.80
2023-02-25T04:58:00.394Z,13.67
2023-02-25T05:00:28.604Z,12.40
2023-02-25T05:02:58.576Z,10.70
2023-02-25T05:05:26.620Z,11.47
2023-02-25T05:07:54.727Z,12.70
2023-02-25T05:10:22.638Z,15.23
2023-02-25T05:12:51.885Z,17.00
2023-02-25T05:15:19.928Z,13.20
2023-02-25T05:17:48.955Z,14.87
2023-02-25T05:20:17.229Z,9.83
2023-02-25T05:22:45.161Z,15.73
2023-02-25T05:25:13.136Z,8.33
2023-02-25T05:27:41.055Z,10.23
2023-02-25T05:30:11.866Z,11.17
2023-02-25T05:32:40.182Z,17.37
2023-02-25T05:35:09.853Z,10.27
2023-02-25T05:37:38.522Z,9.70
2023-02-25T05:40:09.116Z,9.20
2023-02-25T05:42:37.748Z,13.87
2023-02-25T05:45:06.168Z,10.50
2023-02-25T05:47:35.715Z,10.07
2023-02-25T05:50:03.673Z,11.23
2023-02-25T05:52:31.609Z,11.13
2023-02-25T05:55:00.012Z,15.25
2023-02-25T05:57:27.916Z,12.53
2023-02-25T05:59:55.825Z,16.17
2023-02-25T06:02:23.785Z,10.63
2023-02-25T06:04:55.597Z,14.37
2023-02-25T06:07:23.612Z,14.63
2023-02-25T06:09:51.555Z,12.60
2023-02-25T06:12:19.524Z,10.20
2023-02-25T06:14:47.473Z,6.20
2023-02-25T06:17:15.444Z,11.43
2023-02-25T06:19:43.295Z,11.90
2023-02-25T06:22:12.548Z,9.73
2023-02-25T06:24:40.759Z,8.87
2023-02-25T06:27:08.706Z,8.40
2023-02-25T06:29:36.704Z,7.33
2023-02-25T06:32:05.029Z,8.47
2023-02-25T06:34:33.559Z,9.10
2023-02-25T06:37:01.803Z,12.37
2023-02-25T06:39:31.496Z,10.30
2023-02-25T06:41:59.608Z,8.43
2023-02-25T06:44:29.151Z,3.93
2023-02-25T06:46:57.348Z,13.27
2023-02-25T06:49:25.776Z,12.77
2023-02-25T06:51:53.762Z,10.23
2023-02-25T06:54:21.658Z,10.27
2023-02-25T06:56:53.224Z,10.50
2023-02-25T06:59:21.494Z,14.40
2023-02-25T07:01:49.463Z,7.73
2023-02-25T07:04:18.405Z,11.23
2023-02-25T07:06:46.813Z,11.17
2023-02-25T07:09:14.847Z,7.97
2023-02-25T07:11:42.734Z,6.37
2023-02-25T07:14:14.317Z,11.53
2023-02-25T07:16:42.230Z,12.13
2023-02-25T07:19:10.152Z,13.77
2023-02-25T07:21:38.283Z,8.77
2023-02-25T07:24:06.908Z,13.27
2023-02-25T07:26:34.859Z,12.17
2023-02-25T07:29:02.822Z,8.07
2023-02-25T07:31:32.411Z,11.07
2023-02-25T07:34:03.446Z,10.57
2023-02-25T07:36:33.129Z,13.77
2023-02-25T07:39:01.826Z,12.73
2023-02-25T07:41:30.174Z,10.33
2023-02-25T07:44:03.227Z,11.70
2023-02-25T07:46:33.186Z,14.10
2023-02-25T07:49:01.746Z,11.20
2023-02-25T07:51:29.928Z,13.47
2023-02-25T07:53:58.436Z,11.97
2023-02-25T07:56:28.526Z,13.13
2023-02-25T07:58:56.448Z,10.97
2023-02-25T08:01:26.698Z,10.87
2023-02-25T08:03:58.844Z,11.93
2023-02-25T08:06:27.365Z,13.80
2023-02-25T08:08:55.583Z,12.83
2023-02-25T08:11:25.557Z,9.47
2023-02-25T08:13:54.149Z,9.40
2023-02-25T08:16:23.236Z,13.33
2023-02-25T08:18:52.825Z,13.67
2023-02-25T08:21:24.650Z,11.13
2023-02-25T08:23:53.469Z,11.13
2023-02-25T08:26:22.710Z,11.53
2023-02-25T08:28:51.547Z,13.50
2023-02-25T08:31:20.151Z,8.47
2023-02-25T08:33:49.873Z,8.57
2023-02-25T08:36:20.428Z,13.67
2023-02-25T08:38:50.850Z,10.67
2023-02-25T08:41:19.655Z,12.90
2023-02-25T08:43:51.325Z,9.03
2023-02-25T08:46:21.191Z,12.67
2023-02-25T08:48:51.032Z,13.23
2023-02-25T08:51:19.997Z,17.53
2023-02-25T08:53:49.352Z,12.43
2023-02-25T08:56:18.271Z,10.87
2023-02-25T08:58:46.193Z,12.17
2023-02-25T09:01:16.384Z,10.17
2023-02-25T09:03:51.800Z,13.90
2023-02-25T09:06:20.811Z,11.57
2023-02-25T09:08:50.245Z,20.40
2023-02-25T09:11:18.404Z,16.17
2023-02-25T09:13:46.323Z,11.77
2023-02-25T09:16:17.524Z,16.20
2023-02-25T09:18:45.821Z,10.93
2023-02-25T09:21:14.646Z,13.57
2023-02-25T09:23:43.008Z,18.37
2023-02-25T09:26:12.518Z,10.87
2023-02-25T09:28:40.935Z,10.87
2023-02-25T09:31:09.029Z,11.57
2023-02-25T09:33:38.266Z,11.40
2023-02-25T09:36:08.469Z,15.37
2023-02-25T09:38:36.934Z,10.00
2023-02-25T09:41:13.653Z,15.57
2023-02-25T09:43:43.480Z,13.80
2023-02-25T09:46:18.694Z,14.80
2023-02-25T09:48:54.143Z,11.13
2023-02-25T09:51:25.340Z,14.17
2023-02-25T09:53:58.209Z,15.10
2023-02-25T09:56:28.486Z,11.57
2023-02-25T09:58:59.844Z,13.83
2023-02-25T10:01:35.100Z,12.90
2023-02-25T10:04:10.262Z,14.97
2023-02-25T10:06:44.446Z,12.33
2023-02-25T10:09:22.320Z,12.17
2023-02-25T10:11:54.293Z,16.13
2023-02-25T10:14:42.138Z,11.33
2023-02-25T10:17:17.621Z,8.90
2023-02-25T10:20:13.469Z,12.27
2023-02-25T10:22:50.436Z,12.50
2023-02-25T10:25:23.362Z,7.97
2023-02-25T10:27:57.149Z,8.43
2023-02-25T10:30:31.381Z,9.73
2023-02-25T10:33:01.915Z,9.90
2023-02-25T10:35:33.676Z,7.57
2023-02-25T10:38:01.913Z,10.60
2023-02-25T10:40:29.843Z,8.37
2023-02-25T10:43:02.600Z,7.77
2023-02-25T10:45:33.136Z,7.70
2023-02-25T10:48:07.742Z,8.43
2023-02-25T10:50:45.598Z,7.33
2023-02-25T10:53:16.188Z,9.03
2023-02-25T10:55:51.641Z,5.77
2023-02-25T10:58:26.969Z,14.07
2023-02-25T11:01:01.127Z,10.83
2023-02-25T11:03:32.480Z,6.70
2023-02-25T11:06:12.980Z,9.67
2023-02-25T11:08:41.203Z,7.73
2023-02-25T11:11:17.175Z,9.30
2023-02-25T11:13:45.547Z,7.17
2023-02-25T11:16:15.963Z,8.97
2023-02-25T11:18:43.913Z,9.00
2023-02-25T11:21:14.438Z,4.57
2023-02-25T11:23:47.700Z,6.20
2023-02-25T11:26:18.427Z,6.00
2023-02-25T11:28:49.991Z,5.10
2023-02-25T11:31:22.064Z,9.03
2023-02-25T11:33:54.020Z,7.30
2023-02-25T11:36:24.205Z,9.57
2023-02-25T11:39:06.705Z,8.77
2023-02-25T11:41:34.714Z,5.40
2023-02-25T11:44:20.105Z,6.13
2023-02-25T11:46:57.673Z,8.00
2023-02-25T11:49:35.383Z,6.43
2023-02-25T11:52:09.380Z,6.37
2023-02-25T11:54:45.304Z,5.47
2023-02-25T11:57:21.709Z,5.03
2023-02-25T12:00:00.287Z,4.53
2023-02-25T12:02:41.801Z,5.40
2023-02-25T12:05:31.193Z,5.57
2023-02-25T12:08:33.006Z,3.33
2023-02-25T12:11:31.127Z,3.50
2023-02-25T12:14:44.181Z,5.13
2023-02-25T12:17:41.584Z,5.57
2023-02-25T12:20:50.271Z,5.90
2023-02-25T12:24:04.155Z,6.90
2023-02-25T12:26:47.707Z,3.87
2023-02-25T12:29:34.526Z,5.40
2023-02-25T12:32:13.970Z,4.07
2023-02-25T12:35:16.930Z,3.63
2023-02-25T12:38:02.187Z,3.73
2023-02-25T12:41:01.569Z,5.53
2023-02-25T12:43:42.293Z,5.30
2023-02-25T12:46:22.249Z,4.83
2023-02-25T12:49:16.143Z,7.43
2023-02-25T12:52:17.534Z,2.80
2023-02-25T12:55:16.260Z,6.27
2023-02-25T12:57:51.700Z,4.53
2023-02-25T13:00:49.513Z,4.80
2023-02-25T13:03:35.477Z,3.83
2023-02-25T13:06:45.486Z,3.90
2023-02-25T13:09:44.431Z,6.33
2023-02-25T13:12:28.246Z,6.20
2023-02-25T13:15:10.082Z,5.57
2023-02-25T13:17:48.864Z,4.07
2023-02-25T13:20:52.300Z,8.75
2023-02-25T13:23:34.586Z,5.83
2023-02-25T13:26:21.767Z,7.60
2023-02-25T13:29:20.849Z,8.97
2023-02-25T13:31:58.800Z,11.03
2023-02-25T13:34:38.141Z,5.70
2023-02-25T13:37:27.471Z,4.90
2023-02-25T13:40:20.436Z,4.17
2023-02-25T13:43:04.673Z,6.13
2023-02-25T13:46:02.172Z,8.70
2023-02-25T13:49:03.563Z,7.87
2023-02-25T13:51:54.041Z,5.27
2023-02-25T13:54:43.739Z,3.40
2023-02-25T13:57:25.772Z,6.17
2023-02-25T14:00:23.990Z,5.27
2023-02-25T14:03:12.417Z,9.00
2023-02-25T14:06:01.148Z,6.73
2023-02-25T14:08:48.554Z,6.90
2023-02-25T14:11:36.902Z,6.10
2023-02-25T14:14:28.686Z,5.80
2023-02-25T14:17:26.621Z,5.67
2023-02-25T14:20:12.276Z,11.43
2023-02-25T14:22:48.350Z,8.53
2023-02-25T14:25:23.735Z,6.83
2023-02-25T14:28:05.780Z,6.30
2023-02-25T14:30:42.361Z,5.07
2023-02-25T14:33:33.717Z,10.57
2023-02-25T14:36:16.515Z,9.23
2023-02-25T14:39:05.510Z,6.37
2023-02-25T14:41:42.112Z,4.47
2023-02-25T14:44:16.924Z,6.23
2023-02-25T14:46:53.324Z,4.90
2023-02-25T14:49:26.844Z,5.63
2023-02-25T14:52:19.112Z,4.50
2023-02-25T14:55:46.742Z,5.20
2023-02-25T14:58:46.672Z,6.83
2023-02-25T15:01:40.738Z,6.47
2023-02-25T15:04:41.072Z,7.67
2023-02-25T15:07:41.285Z,7.63
2023-02-25T15:10:44.729Z,11.63
2023-02-25T15:13:46.264Z,10.80
2023-02-25T15:16:35.453Z,9.33
2023-02-25T15:19:29.536Z,6.90
2023-02-25T15:22:23.752Z,7.00
2023-02-25T15:24:53.129Z,8.10
2023-02-25T15:27:52.098Z,5.40
2023-02-25T15:30:24.665Z,3.87
2023-02-25T15:33:07.354Z,7.63
2023-02-25T15:36:03.220Z,5.20
2023-02-25T15:38:43.753Z,5.53
2023-02-25T15:41:41.295Z,5.70
2023-02-25T15:44:32.018Z,7.57
2023-02-25T15:47:23.338Z,4.03
2023-02-25T15:49:52.677Z,6.00
2023-02-25T15:52:58.665Z,7.70
2023-02-25T15:55:43.080Z,6.87
2023-02-25T15:58:43.935Z,5.37
2023-02-25T16:01:29.124Z,4.77
2023-02-25T16:03:58.439Z,7.87
2023-02-25T16:06:33.189Z,4.87
2023-02-25T16:09:07.601Z,5.70
2023-02-25T16:11:38.917Z,5.37
2023-02-25T16:14:13.266Z,3.87
2023-02-25T16:16:50.329Z,5.47
2023-02-25T16:19:23.276Z,8.57
2023-02-25T16:21:54.857Z,4.40
2023-02-25T16:24:24.832Z,4.87
2023-02-25T16:26:59.563Z,5.83
2023-02-25T16:29:43.930Z,4.67
2023-02-25T16:32:23.823Z,6.93
2023-02-25T16:34:59.831Z,7.10
2023-02-25T16:37:34.554Z,6.73
2023-02-25T16:40:03.038Z,4.70
2023-02-25T16:42:34.167Z,4.37
2023-02-25T16:45:05.592Z,4.07
2023-02-25T16:47:37.260Z,3.40
2023-02-25T16:50:16.119Z,5.47
2023-02-25T16:52:50.410Z,4.87
2023-02-25T16:55:22.797Z,5.50
2023-02-25T16:58:06.263Z,4.47
2023-02-25T17:00:36.418Z,4.60
2023-02-25T17:03:07.359Z,4.37
2023-02-25T17:05:38.691Z,4.53
2023-02-25T17:08:15.056Z,6.40
2023-02-25T17:10:47.371Z,6.37
2023-02-25T17:13:21.756Z,5.63
2023-02-25T17:15:50.605Z,4.07
2023-02-25T17:18:25.362Z,2.43
2023-02-25T17:21:02.172Z,5.40
2023-02-25T17:23:30.885Z,4.07
2023-02-25T17:26:00.108Z,5.33
2023-02-25T17:28:31.783Z,7.40
2023-02-25T17:31:08.365Z,5.03
2023-02-25T17:33:37.197Z,4.67
2023-02-25T17:36:12.073Z,4.20
2023-02-25T17:38:40.032Z,3.17
2023-02-25T17:41:08.130Z,5.67
2023-02-25T17:43:37.461Z,4.53
2023-02-25T17:46:17.122Z,2.87
2023-02-25T17:48:52.897Z,4.83
2023-02-25T17:51:31.181Z,2.30
2023-02-25T17:54:05.133Z,4.27
2023-02-25T17:56:35.029Z,5.87
2023-02-25T17:59:06.689Z,4.23
2023-02-25T18:01:47.588Z,4.47
2023-02-25T18:04:24.928Z,7.10
2023-02-25T18:06:55.866Z,5.07
2023-02-25T18:09:37.977Z,6.50
2023-02-25T18:12:08.601Z,4.93
2023-02-25T18:14:38.770Z,7.57
2023-02-25T18:17:17.624Z,5.90
2023-02-25T18:19:46.417Z,5.83
2023-02-25T18:22:33.931Z,5.60
2023-02-25T18:25:05.681Z,8.20
2023-02-25T18:27:37.585Z,5.03
2023-02-25T18:30:19.812Z,4.57
2023-02-25T18:32:48.303Z,4.53
2023-02-25T18:35:17.050Z,7.25
2023-02-25T18:37:48.446Z,7.37
2023-02-25T18:40:18.777Z,8.23
2023-02-25T18:42:46.872Z,6.27
2023-02-25T18:45:16.522Z,6.90
2023-02-25T18:47:44.433Z,6.47
2023-02-25T18:50:12.854Z,6.77
2023-02-25T18:52:41.325Z,6.60
2023-02-25T18:55:17.768Z,4.63
2023-02-25T18:57:45.700Z,6.30
2023-02-25T19:00:15.493Z,3.53
2023-02-25T19:02:48.114Z,6.63
2023-02-25T19:05:16.963Z,7.53
2023-02-25T19:07:45.574Z,6.87
2023-02-25T19:10:18.638Z,5.03
2023-02-25T19:12:49.423Z,7.47
2023-02-25T19:15:19.599Z,8.60
2023-02-25T19:17:47.898Z,7.17
2023-02-25T19:20:17.122Z,5.80
2023-02-25T19:22:46.055Z,7.63
2023-02-25T19:25:20.924Z,6.70
2023-02-25T19:27:49.408Z,8.57
2023-02-25T19:30:19.576Z,5.00
2023-02-25T19:32:47.484Z,8.20
2023-02-25T19:35:15.975Z,7.20
2023-02-25T19:37:44.155Z,6.30
2023-02-25T19:40:14.758Z,9.17
2023-02-25T19:42:45.490Z,7.40
2023-02-25T19:45:16.674Z,7.30
2023-02-25T19:47:44.818Z,8.57
2023-02-25T19:50:13.610Z,8.00
2023-02-25T19:52:41.531Z,8.93
2023-02-25T19:55:11.381Z,10.83
2023-02-25T19:57:39.620Z,8.90
2023-02-25T20:00:11.635Z,6.10
2023-02-25T20:02:42.928Z,6.80
2023-02-25T20:05:12.030Z,5.83
2023-02-25T20:07:40.075Z,7.47
2023-02-25T20:10:10.956Z,6.90
2023-02-25T20:12:39.263Z,5.13
2023-02-25T20:15:10.062Z,8.97
2023-02-25T20:17:38.731Z,9.00
2023-02-25T20:20:08.331Z,6.20
2023-02-25T20:22:37.048Z,6.03
2023-02-25T20:25:06.132Z,5.57
2023-02-25T20:27:36.818Z,5.43
2023-02-25T20:30:06.205Z,9.10
2023-02-25T20:32:35.545Z,6.30
2023-02-25T20:35:04.024Z,8.90
2023-02-25T20:37:35.535Z,30.57
2023-02-25T20:40:07.772Z,29.80
2023-02-25T20:42:35.973Z,10.03
2023-02-25T20:45:04.665Z,9.50
2023-02-25T20:47:36.412Z,6.97
2023-02-25T20:50:28.530Z,6.90
2023-02-25T20:52:57.169Z,5.33
2023-02-25T20:55:25.200Z,8.73
2023-02-25T20:57:53.138Z,8.77
2023-02-25T21:00:21.724Z,6.60
2023-02-25T21:02:50.998Z,10.93
2023-02-25T21:05:18.890Z,8.33
2023-02-25T21:07:46.833Z,16.67
2023-02-25T21:10:14.776Z,12.57
2023-02-25T21:12:42.637Z,7.60
2023-02-25T21:15:11.514Z,7.33
2023-02-25T21:17:39.458Z,6.70
2023-02-25T21:20:10.400Z,5.57
2023-02-25T21:22:38.397Z,10.37
2023-02-25T21:25:06.756Z,4.63
2023-02-25T21:27:34.629Z,7.33
2023-02-25T21:30:03.001Z,11.63
2023-02-25T21:32:31.093Z,9.40
2023-02-25T21:35:00.109Z,6.90
2023-02-25T21:37:29.365Z,7.87
2023-02-25T21:39:57.236Z,11.47
2023-02-25T21:42:25.171Z,14.23
2023-02-25T21:44:53.108Z,9.93
2023-02-25T21:47:20.962Z,6.10
2023-02-25T21:49:50.188Z,7.27
2023-02-25T21:52:18.680Z,9.10
2023-02-25T21:54:47.895Z,7.10
2023-02-25T21:57:15.749Z,8.73
2023-02-25T21:59:43.607Z,8.23
2023-02-25T22:02:11.814Z,10.27
2023-02-25T22:04:39.721Z,8.57
2023-02-25T22:07:07.643Z,8.47
2023-02-25T22:09:35.560Z,7.80
2023-02-25T22:12:04.928Z,10.23
2023-02-25T22:14:32.912Z,8.77
2023-02-25T22:17:02.096Z,9.73
2023-02-25T22:19:30.208Z,9.53
2023-02-25T22:21:58.112Z,9.10
2023-02-25T22:24:26.083Z,6.90
2023-02-25T22:26:53.982Z,7.43
2023-02-25T22:29:23.360Z,8.43
2023-02-25T22:31:51.346Z,6.70
2023-02-25T22:34:19.323Z,7.50
2023-02-25T22:36:47.725Z,11.00
2023-02-25T22:39:16.041Z,8.27
2023-02-25T22:41:43.967Z,10.70
2023-02-25T22:44:11.929Z,11.00
2023-02-25T22:46:41.383Z,5.80
2023-02-25T22:49:09.968Z,10.77
2023-02-25T22:51:42.043Z,7.37
2023-02-25T22:54:10.215Z,7.93
2023-02-25T22:56:39.008Z,11.83
2023-02-25T22:59:07.266Z,8.17
2023-02-25T23:01:35.308Z,11.10
2023-02-25T23:04:04.994Z,8.57
2023-02-25T23:06:43.282Z,7.07
2023-02-25T23:09:12.463Z,11.73
2023-02-25T23:11:42.143Z,8.23
2023-02-25T23:14:10.388Z,8.77
2023-02-25T23:16:41.339Z,9.00
2023-02-25T23:19:12.977Z,8.87
2023-02-25T23:21:41.087Z,10.13
2023-02-25T23:24:13.853Z,8.00
2023-02-25T23:26:43.159Z,8.83
2023-02-25T23:29:12.497Z,9.80
2023-02-25T23:31:44.456Z,9.07
2023-02-25T23:34:17.802Z,9.57
2023-02-25T23:36:46.061Z,11.30
2023-02-25T23:39:15.874Z,12.17
2023-02-25T23:41:44.501Z,11.10
2023-02-25T23:44:13.543Z,13.37
2023-02-25T23:46:43.169Z,8.93
2023-02-25T23:49:14.350Z,10.23
2023-02-25T23:51:43.738Z,7.47
2023-02-25T23:54:14.445Z,10.67
2023-02-25T23:56:42.336Z,8.63
2023-02-25T23:59:10.920Z,10.57
